Time;durP1;ratioP1;P1;durP2;ratioP2;P2;SDS_P1;SDS_P2;PMS_P1;PMS_P2;Temp;Humidity;BMP_temperature;BMP_pressure;BME280_temperature;BME280_humidity;BME280_pressure;Samples;Min_cycle;Max_cycle;Signal;HPM_P1;HPM_P2
2023/06/27 00:00:13;;;;;;;0.57;0.57;;;;;;;18.58;76.50;99255.19;5074097;28;20546;-63
2023/06/27 00:02:46;;;;;;;0.65;0.65;;;;;;;18.52;76.16;99247.66;5073880;28;20066;-63
2023/06/27 00:05:15;;;;;;;0.50;0.50;;;;;;;18.44;76.39;99247.13;5073982;28;20052;-63
2023/06/27 00:07:44;;;;;;;0.80;0.80;;;;;;;18.43;76.58;99249.75;5073665;28;20044;-62
2023/06/27 00:10:15;;;;;;;1.13;1.03;;;;;;;18.40;76.59;99242.13;5073623;28;20037;-63
2023/06/27 00:12:45;;;;;;;0.65;0.65;;;;;;;18.37;76.44;99237.94;5073643;28;20372;-62
2023/06/27 00:15:14;;;;;;;1.27;1.10;;;;;;;18.23;76.58;99232.47;5073591;28;20517;-63
2023/06/27 00:17:42;;;;;;;0.87;0.87;;;;;;;18.16;76.87;99219.84;5073846;28;20041;-63
2023/06/27 00:20:12;;;;;;;1.13;1.02;;;;;;;18.12;77.25;99224.28;5073674;28;20597;-63
2023/06/27 00:22:41;;;;;;;1.27;1.13;;;;;;;18.04;77.24;99221.16;5073545;28;20041;-63
2023/06/27 00:25:11;;;;;;;3.33;1.50;;;;;;;17.93;77.50;99218.13;5073496;28;20407;-63
2023/06/27 00:27:42;;;;;;;0.73;0.73;;;;;;;17.87;77.55;99218.38;5073446;28;20045;-62
2023/06/27 00:30:11;;;;;;;0.60;0.60;;;;;;;17.90;77.80;99216.50;5072343;28;20040;-63
2023/06/27 00:32:40;;;;;;;2.67;1.83;;;;;;;18.03;77.83;99209.13;5072248;28;20078;-63
2023/06/27 00:35:09;;;;;;;0.50;0.50;;;;;;;18.20;77.51;99211.91;5072527;28;20502;-63
2023/06/27 00:37:38;;;;;;;1.40;1.30;;;;;;;18.30;77.15;99213.25;5073535;28;20419;-63
2023/06/27 00:40:09;;;;;;;1.00;0.90;;;;;;;18.34;76.84;99212.19;5073894;28;20394;-64
2023/06/27 00:42:39;;;;;;;0.68;0.68;;;;;;;18.39;76.40;99205.13;5073316;28;20075;-62
2023/06/27 00:45:10;;;;;;;0.63;0.63;;;;;;;18.34;76.16;99208.78;5073298;28;20482;-62
2023/06/27 00:47:39;;;;;;;0.60;0.60;;;;;;;18.36;75.85;99207.81;5073609;28;20053;-62
2023/06/27 00:50:09;;;;;;;1.63;1.23;;;;;;;18.38;75.67;99211.16;5072040;28;20044;-63
2023/06/27 00:52:41;;;;;;;0.95;0.88;;;;;;;18.39;75.64;99212.88;5071985;28;20127;-63
2023/06/27 00:55:10;;;;;;;3.10;1.80;;;;;;;18.38;75.49;99211.16;5073505;28;20132;-63
2023/06/27 00:57:40;;;;;;;1.85;1.10;;;;;;;18.37;75.22;99212.09;5073085;28;20036;-63
2023/06/27 01:00:11;;;;;;;;;;;;;;;18.39;75.10;99199.94;5073900;28;20040;-63
2023/06/27 01:02:40;;;;;;;0.65;0.65;;;;;;;18.34;74.87;99196.69;5073212;28;19921;-62
2023/06/27 01:05:11;;;;;;;0.75;0.75;;;;;;;18.31;74.90;99204.56;5071868;28;20128;-63
2023/06/27 01:07:44;;;;;;;0.90;0.73;;;;;;;18.28;74.93;99209.88;5071935;28;20075;-62
2023/06/27 01:10:18;;;;;;;7.47;1.05;;;;;;;18.18;75.07;99213.72;5073124;28;20041;-63
2023/06/27 01:12:57;;;;;;;0.52;0.52;;;;;;;18.26;74.93;99203.09;5072220;28;20064;-63
2023/06/27 01:15:28;;;;;;;0.80;0.80;;;;;;;18.35;74.61;99200.97;5073333;28;20055;-62
2023/06/27 01:17:58;;;;;;;0.93;0.90;;;;;;;18.47;74.26;99197.09;5071873;28;20044;-63
2023/06/27 01:20:28;;;;;;;0.65;0.65;;;;;;;18.50;73.91;99202.97;5071792;28;20060;-62
2023/06/27 01:23:07;;;;;;;2.70;1.25;;;;;;;18.52;73.89;99219.25;5073315;28;20048;-63
2023/06/27 01:25:38;;;;;;;1.00;0.93;;;;;;;18.55;73.93;99244.97;5071562;28;20102;-63
2023/06/27 01:28:08;;;;;;;0.70;0.70;;;;;;;18.58;73.53;99239.69;5071742;28;20488;-63
2023/06/27 01:30:37;;;;;;;1.02;0.93;;;;;;;18.48;73.38;99228.03;5072782;28;20045;-63
2023/06/27 01:33:12;;;;;;;1.17;0.93;;;;;;;18.37;73.52;99222.44;5074297;28;20045;-63
2023/06/27 01:35:47;;;;;;;1.27;0.70;;;;;;;18.35;73.36;99213.06;5075369;28;20135;-62
2023/06/27 01:38:21;;;;;;;9.00;1.25;;;;;;;18.43;73.58;99191.16;5076723;28;20056;-63
2023/06/27 01:40:57;;;;;;;0.73;0.70;;;;;;;18.42;73.58;99171.41;5076392;28;20052;-62
2023/06/27 01:43:29;;;;;;;1.13;1.02;;;;;;;18.40;73.87;99168.03;5076617;28;20548;-62
2023/06/27 01:45:58;;;;;;;2.45;1.10;;;;;;;18.38;74.15;99169.00;5076341;28;20102;-63
2023/06/27 01:48:27;;;;;;;0.60;0.60;;;;;;;18.30;74.46;99171.91;5076172;28;20044;-62
2023/06/27 01:50:56;;;;;;;1.20;1.10;;;;;;;18.33;74.72;99165.75;5076100;28;20045;-63
2023/06/27 01:53:25;;;;;;;;;;;;;;;18.41;74.58;99168.88;5076408;28;20053;-63
2023/06/27 01:55:56;;;;;;;0.60;0.60;;;;;;;18.49;74.51;99167.69;5076053;28;19920;-63
2023/06/27 01:58:25;;;;;;;0.68;0.68;;;;;;;18.55;74.31;99172.59;5075205;28;20048;-62
2023/06/27 02:00:54;;;;;;;11.75;1.85;;;;;;;18.59;74.25;99163.00;5076138;28;20403;-63
2023/06/27 02:03:22;;;;;;;0.82;0.80;;;;;;;18.63;74.01;99155.03;5076007;28;20055;-62
2023/06/27 02:05:51;;;;;;;1.10;1.00;;;;;;;18.68;73.71;99152.25;5075242;28;20044;-63
2023/06/27 02:08:20;;;;;;;2.77;1.20;;;;;;;18.68;73.57;99147.94;5076235;28;20041;-63
2023/06/27 02:10:49;;;;;;;1.73;1.63;;;;;;;18.68;73.48;99141.91;5075772;28;20538;-62
2023/06/27 02:13:19;;;;;;;1.10;1.00;;;;;;;18.67;73.49;99145.41;5075699;28;20044;-63
2023/06/27 02:15:48;;;;;;;0.65;0.65;;;;;;;18.67;73.56;99150.56;5076032;28;20471;-63
2023/06/27 02:18:17;;;;;;;1.10;0.90;;;;;;;18.60;73.90;99157.75;5075673;28;20043;-62
2023/06/27 02:20:46;;;;;;;1.33;0.80;;;;;;;18.57;73.82;99150.09;5074667;28;20127;-62
2023/06/27 02:23:14;;;;;;;2.70;1.37;;;;;;;18.56;74.05;99148.44;5075638;28;20123;-63
2023/06/27 02:25:44;;;;;;;1.73;1.50;;;;;;;18.58;74.06;99156.97;5075290;28;20051;-62
2023/06/27 02:28:15;;;;;;;0.65;0.65;;;;;;;18.65;74.53;99170.47;5075553;28;20119;-62
2023/06/27 02:30:45;;;;;;;0.82;0.82;;;;;;;18.59;74.33;99176.75;5075421;28;20037;-63
2023/06/27 02:33:14;;;;;;;1.60;1.27;;;;;;;18.57;74.50;99191.47;5075445;28;20106;-62
2023/06/27 02:35:43;;;;;;;1.52;1.25;;;;;;;18.51;74.96;99199.47;5075650;28;20032;-62
2023/06/27 02:38:12;;;;;;;0.90;0.88;;;;;;;18.47;75.20;99203.09;5074203;28;20035;-63
2023/06/27 02:40:44;;;;;;;1.23;1.02;;;;;;;18.46;75.26;99208.31;5076364;28;20060;-62
2023/06/27 02:43:13;;;;;;;1.00;0.97;;;;;;;18.45;75.34;99207.44;5073940;28;20403;-63
2023/06/27 02:45:42;;;;;;;0.80;0.80;;;;;;;18.54;75.44;99212.28;5073899;28;20295;-62
2023/06/27 02:48:13;;;;;;;2.30;1.25;;;;;;;18.59;75.51;99215.53;5075404;28;20063;-63
2023/06/27 02:50:46;;;;;;;0.70;0.70;;;;;;;18.64;75.92;99190.31;5075014;28;20483;-62
2023/06/27 02:53:14;;;;;;;1.40;0.93;;;;;;;18.59;76.15;99125.06;5073824;28;20036;-63
2023/06/27 02:55:45;;;;;;;0.85;0.80;;;;;;;18.44;77.00;99094.66;5074949;28;20056;-61
2023/06/27 02:58:14;;;;;;;0.88;0.88;;;;;;;18.21;78.13;99099.91;5073955;28;20102;-61
2023/06/27 03:00:43;;;;;;;;;;;;;;;18.13;78.86;99116.63;5075600;28;20037;-61
2023/06/27 03:03:14;;;;;;;0.55;0.55;;;;;;;17.96;79.18;99143.97;5073424;28;19927;-61
2023/06/27 03:05:43;;;;;;;0.82;0.82;;;;;;;17.95;79.88;99149.19;5074754;28;20121;-61
2023/06/27 03:08:12;;;;;;;0.95;0.93;;;;;;;18.07;80.28;99169.38;5074633;28;20048;-61
2023/06/27 03:10:41;;;;;;;1.35;1.25;;;;;;;18.17;80.43;99169.84;5072965;28;20045;-61
2023/06/27 03:13:09;;;;;;;1.33;1.23;;;;;;;18.22;80.70;99186.00;5054542;28;20095;-62
2023/06/27 03:15:40;;;;;;;0.80;0.73;;;;;;;18.30;81.01;99182.22;5054590;28;20119;-62
2023/06/27 03:18:09;;;;;;;0.88;0.85;;;;;;;18.36;81.34;99181.97;5053284;28;20049;-62
2023/06/27 03:20:39;;;;;;;2.40;1.00;;;;;;;18.40;81.55;99183.56;5053865;28;20037;-62
2023/06/27 03:23:08;;;;;;;1.15;1.00;;;;;;;18.46;81.86;99191.06;5055553;28;20524;-61
2023/06/27 03:25:37;;;;;;;4.97;1.65;;;;;;;18.46;82.16;99193.66;5054114;28;20041;-62
2023/06/27 03:28:07;;;;;;;;;;;;;;;18.49;82.21;99193.53;5055552;28;20045;-62
2023/06/27 03:30:45;;;;;;;2.38;1.35;;;;;;;18.44;82.39;99198.03;5053168;28;19956;-62
2023/06/27 03:33:16;;;;;;;1.25;1.00;;;;;;;18.42;82.61;99197.25;5052923;28;20491;-62
2023/06/27 03:35:48;;;;;;;1.58;1.20;;;;;;;18.38;82.74;99203.41;5054031;28;20060;-62
2023/06/27 03:38:18;;;;;;;2.17;1.50;;;;;;;18.24;82.97;99210.03;5054142;28;20060;-61
2023/06/27 03:40:46;;;;;;;0.52;0.52;;;;;;;18.19;83.70;99204.22;5054432;28;20041;-62
2023/06/27 03:43:17;;;;;;;2.13;1.80;;;;;;;18.25;83.84;99197.06;5052857;28;20051;-61
2023/06/27 03:45:47;;;;;;;1.70;1.38;;;;;;;18.21;84.01;99197.25;5053907;28;20045;-61
2023/06/27 03:48:16;;;;;;;5.73;1.47;;;;;;;18.20;84.12;99191.25;5052830;28;20041;-62
2023/06/27 03:50:47;;;;;;;1.40;1.00;;;;;;;18.24;84.31;99190.22;5052754;28;20290;-62
2023/06/27 03:53:16;;;;;;;1.50;1.40;;;;;;;18.26;84.50;99193.56;5052631;28;20045;-62
2023/06/27 03:55:44;;;;;;;0.97;0.73;;;;;;;18.28;84.57;99194.38;5052896;28;20094;-63
2023/06/27 03:58:13;;;;;;;1.73;1.17;;;;;;;18.36;84.83;99199.22;5053755;28;20067;-61
2023/06/27 04:00:43;;;;;;;0.70;0.70;;;;;;;18.38;85.04;99211.16;5053816;28;20045;-62
2023/06/27 04:03:12;;;;;;;1.83;1.13;;;;;;;18.48;85.25;99207.34;5052533;28;20041;-61
2023/06/27 04:05:41;;;;;;;0.87;0.87;;;;;;;18.64;85.04;99218.75;5053631;28;20056;-62
2023/06/27 04:08:15;;;;;;;0.57;0.57;;;;;;;18.76;84.82;99221.75;5052472;28;20270;-62
2023/06/27 04:10:44;;;;;;;0.63;0.63;;;;;;;18.72;84.67;99221.03;5052731;28;20403;-62
2023/06/27 04:13:13;;;;;;;3.47;1.70;;;;;;;18.74;83.83;99217.47;5052278;28;20041;-62
2023/06/27 04:15:43;;;;;;;0.73;0.73;;;;;;;18.82;83.31;99216.31;5054415;28;20057;-62
2023/06/27 04:18:14;;;;;;;2.80;1.65;;;;;;;18.93;82.53;99219.31;5052626;28;20395;-62
2023/06/27 04:20:44;;;;;;;1.23;1.02;;;;;;;19.06;82.42;99215.28;5052312;28;20052;-63
2023/06/27 04:23:13;;;;;;;1.13;0.90;;;;;;;19.07;82.39;99217.81;5053418;28;20079;-63
2023/06/27 04:25:45;;;;;;;1.00;0.88;;;;;;;19.05;82.10;99223.97;5053046;28;20289;-62
2023/06/27 04:28:15;;;;;;;1.17;1.08;;;;;;;19.08;82.08;99229.00;5053442;28;20411;-62
2023/06/27 04:30:44;;;;;;;1.02;0.93;;;;;;;19.19;81.89;99221.63;5053652;28;20040;-63
2023/06/27 04:33:13;;;;;;;2.07;1.43;;;;;;;19.19;81.79;99226.81;5053866;28;20037;-63
2023/06/27 04:35:42;;;;;;;1.60;1.50;;;;;;;19.25;81.35;99221.34;5053304;28;20094;-62
2023/06/27 04:38:14;;;;;;;0.73;0.68;;;;;;;19.36;81.67;99227.78;5053294;28;20499;-62
2023/06/27 04:40:45;;;;;;;1.20;1.10;;;;;;;19.38;81.38;99225.97;5053288;28;20069;-62
2023/06/27 04:43:15;;;;;;;1.73;1.58;;;;;;;19.36;81.24;99224.38;5053272;28;20045;-62
2023/06/27 04:45:43;;;;;;;4.90;2.53;;;;;;;19.39;80.72;99229.38;5053187;28;20040;-62
2023/06/27 04:48:12;;;;;;;1.40;1.30;;;;;;;19.45;80.56;99233.47;5053106;28;20045;-62
2023/06/27 04:50:41;;;;;;;1.42;1.20;;;;;;;19.53;80.12;99245.16;5053284;28;20045;-62
2023/06/27 04:53:10;;;;;;;1.37;1.07;;;;;;;19.64;79.85;99255.91;5053439;28;20402;-62
2023/06/27 04:55:39;;;;;;;1.00;0.90;;;;;;;19.73;79.63;99255.47;5053221;28;20045;-63
2023/06/27 04:58:09;;;;;;;0.60;0.60;;;;;;;19.77;79.89;99257.00;5053562;28;20293;-62
2023/06/27 05:00:38;;;;;;;1.20;1.10;;;;;;;19.85;79.79;99254.94;5053126;28;20140;-62
2023/06/27 05:03:07;;;;;;;1.15;1.05;;;;;;;19.93;79.28;99268.38;5053117;28;20048;-62
2023/06/27 05:05:36;;;;;;;2.85;1.17;;;;;;;20.01;78.69;99271.44;5053401;28;20088;-63
2023/06/27 05:08:05;;;;;;;2.97;1.98;;;;;;;20.00;78.18;99282.75;5055118;28;20033;-62
2023/06/27 05:10:35;;;;;;;2.95;2.25;;;;;;;19.99;77.65;99278.47;5056894;28;20048;-62
2023/06/27 05:13:03;;;;;;;3.13;1.30;;;;;;;19.98;77.37;99281.97;5056854;28;20057;-63
2023/06/27 05:15:34;;;;;;;2.83;1.30;;;;;;;19.88;77.18;99280.72;5057057;28;20037;-62
2023/06/27 05:18:24;;;;;;;1.77;1.30;;;;;;;19.83;77.48;99285.25;5056773;28;20037;-62
2023/06/27 05:20:54;;;;;;;1.45;0.95;;;;;;;19.82;77.67;99296.50;5057410;28;20067;-62
2023/06/27 05:23:23;;;;;;;1.90;1.27;;;;;;;19.82;77.62;99301.69;5057271;28;20376;-62
2023/06/27 05:25:52;;;;;;;2.60;1.70;;;;;;;19.92;77.43;99302.97;5056540;28;20102;-62
2023/06/27 05:28:21;;;;;;;1.70;1.52;;;;;;;20.00;77.19;99316.44;5056514;28;20495;-62
2023/06/27 05:30:51;;;;;;;2.53;1.08;;;;;;;20.08;77.09;99307.47;5056803;28;20070;-62
2023/06/27 05:33:20;;;;;;;0.90;0.85;;;;;;;20.22;77.16;99307.69;5056515;28;20053;-63
2023/06/27 05:35:49;;;;;;;1.77;0.97;;;;;;;20.24;76.63;99308.47;5056469;28;20491;-62
2023/06/27 05:38:17;;;;;;;7.50;0.70;;;;;;;20.25;76.03;99310.16;5056378;28;20045;-63
2023/06/27 05:40:46;;;;;;;1.15;0.98;;;;;;;20.26;75.57;99309.25;5056295;28;20286;-62
2023/06/27 05:43:15;;;;;;;0.83;0.83;;;;;;;20.29;75.02;99312.53;5056264;28;20135;-63
2023/06/27 05:45:44;;;;;;;0.77;0.77;;;;;;;20.38;75.18;99317.28;5056322;28;20041;-63
2023/06/27 05:48:15;;;;;;;0.82;0.82;;;;;;;20.40;75.47;99330.19;5056156;28;20131;-63
2023/06/27 05:50:44;;;;;;;1.60;1.50;;;;;;;20.48;75.81;99323.75;5056250;28;20045;-63
2023/06/27 05:53:12;;;;;;;0.80;0.80;;;;;;;20.52;76.41;99319.25;5055783;28;20048;-64
2023/06/27 05:55:41;;;;;;;4.63;1.10;;;;;;;20.55;76.36;99327.72;5047728;28;20389;-64
2023/06/27 05:58:10;;;;;;;1.27;0.98;;;;;;;20.55;76.91;99329.47;5053869;28;20041;-62
2023/06/27 06:00:40;;;;;;;2.00;1.70;;;;;;;20.58;77.33;99334.53;5055654;28;20091;-62
2023/06/27 06:03:09;;;;;;;6.10;1.58;;;;;;;20.59;77.12;99341.38;5056027;28;20073;-62
2023/06/27 06:05:39;;;;;;;0.60;0.60;;;;;;;20.63;76.56;99342.94;5046048;28;20399;-63
2023/06/27 06:08:08;;;;;;;0.90;0.90;;;;;;;20.65;75.66;99336.75;5055908;28;20119;-62
2023/06/27 06:10:37;;;;;;;1.97;1.40;;;;;;;20.62;75.08;99336.06;5055794;28;20141;-63
2023/06/27 06:13:06;;;;;;;1.50;0.93;;;;;;;20.64;74.96;99334.22;5056033;28;20114;-62
2023/06/27 06:15:34;;;;;;;1.43;1.00;;;;;;;20.51;75.58;99335.72;5053213;28;20049;-63
2023/06/27 06:18:03;;;;;;;1.60;1.02;;;;;;;20.44;76.33;99326.56;5055557;28;20046;-63
2023/06/27 06:20:33;;;;;;;2.08;1.30;;;;;;;20.34;76.59;99333.91;5054754;28;20059;-62
2023/06/27 06:23:03;;;;;;;4.25;1.23;;;;;;;20.30;76.61;99331.53;5055524;28;20044;-62
2023/06/27 06:25:31;;;;;;;0.93;0.80;;;;;;;20.26;76.76;99330.81;5048521;28;20118;-63
2023/06/27 06:28:00;;;;;;;1.63;1.53;;;;;;;20.20;76.57;99330.25;5053086;28;20052;-62
2023/06/27 06:30:29;;;;;;;1.40;1.30;;;;;;;20.25;76.76;99343.88;5055500;28;20048;-62
2023/06/27 06:32:58;;;;;;;1.23;1.13;;;;;;;20.29;76.92;99359.19;5055296;28;20524;-63
2023/06/27 06:35:27;;;;;;;1.52;1.13;;;;;;;20.30;77.13;99362.66;5043672;28;20048;-63
2023/06/27 06:37:55;;;;;;;0.98;0.88;;;;;;;20.23;77.48;99363.84;5035295;28;20056;-62
2023/06/27 06:40:29;;;;;;;2.35;0.82;;;;;;;20.27;77.85;99361.03;5034076;28;20034;-63
2023/06/27 06:42:57;;;;;;;1.67;1.58;;;;;;;20.33;78.11;99378.03;5052038;28;20068;-62
2023/06/27 06:45:26;;;;;;;1.13;1.03;;;;;;;20.41;78.57;99383.72;5055512;28;20049;-62
2023/06/27 06:47:55;;;;;;;2.15;1.27;;;;;;;20.30;78.22;99375.59;5055350;28;20041;-62
2023/06/27 06:50:23;;;;;;;2.93;1.73;;;;;;;20.34;78.57;99378.00;5054973;28;20128;-63
2023/06/27 06:52:53;;;;;;;0.82;0.70;;;;;;;20.33;78.33;99378.03;5052760;28;20056;-62
2023/06/27 06:55:22;;;;;;;1.00;0.85;;;;;;;20.37;78.50;99379.59;5055128;28;20075;-62
2023/06/27 06:57:53;;;;;;;1.13;1.00;;;;;;;20.42;78.43;99375.06;5054901;28;20044;-63
2023/06/27 07:00:22;;;;;;;1.70;1.27;;;;;;;20.39;78.87;99363.06;5053741;28;20052;-62
2023/06/27 07:02:52;;;;;;;1.20;1.10;;;;;;;20.41;78.85;99374.19;5037535;28;20037;-62
2023/06/27 07:05:21;;;;;;;1.83;1.65;;;;;;;20.32;79.08;99371.19;5035179;28;20057;-62
2023/06/27 07:07:50;;;;;;;0.95;0.90;;;;;;;20.31;79.66;99382.44;5034917;28;20111;-62
2023/06/27 07:10:19;;;;;;;0.77;0.70;;;;;;;20.37;79.94;99383.00;5034694;28;20511;-63
2023/06/27 07:12:47;;;;;;;1.10;1.00;;;;;;;20.48;80.20;99379.94;5033561;28;20049;-63
2023/06/27 07:15:18;;;;;;;1.40;1.23;;;;;;;20.58;80.59;99391.59;5034810;28;20029;-63
2023/06/27 07:17:47;;;;;;;1.20;1.00;;;;;;;20.65;80.43;99391.22;5034830;28;20053;-63
2023/06/27 07:20:16;;;;;;;1.63;1.53;;;;;;;20.71;80.23;99392.69;5034858;28;20444;-62
2023/06/27 07:22:45;;;;;;;1.73;1.55;;;;;;;20.80;79.82;99397.47;5046144;28;20051;-62
2023/06/27 07:25:14;;;;;;;1.33;1.23;;;;;;;20.90;79.46;99403.88;5054199;28;20545;-62
2023/06/27 07:27:44;;;;;;;0.87;0.87;;;;;;;21.03;79.15;99405.00;5054252;28;20036;-63
2023/06/27 07:30:13;;;;;;;1.17;1.02;;;;;;;21.07;78.96;99398.75;5042112;28;20386;-62
2023/06/27 07:32:44;;;;;;;1.92;0.98;;;;;;;21.10;79.36;99401.22;5034215;28;20050;-63
2023/06/27 07:35:12;;;;;;;1.23;1.13;;;;;;;21.19;79.27;99398.19;5034152;28;20128;-62
2023/06/27 07:37:41;;;;;;;1.90;1.63;;;;;;;21.22;79.58;99400.63;5034237;28;20116;-63
2023/06/27 07:40:10;;;;;;;3.80;1.20;;;;;;;21.31;79.83;99400.19;5033325;28;20297;-63
2023/06/27 07:42:39;;;;;;;2.15;1.23;;;;;;;21.43;80.09;99403.09;5034125;28;20048;-63
2023/06/27 07:45:10;;;;;;;1.50;1.40;;;;;;;21.52;80.07;99402.66;5034029;28;20092;-62
2023/06/27 07:47:38;;;;;;;3.22;1.88;;;;;;;21.62;79.61;99394.31;5034439;28;20069;-63
2023/06/27 07:50:10;;;;;;;2.42;1.65;;;;;;;21.71;79.14;99403.41;5032894;28;20088;-63
2023/06/27 07:52:39;;;;;;;2.95;1.75;;;;;;;21.81;78.40;99400.25;5046802;28;20060;-63
2023/06/27 07:55:09;;;;;;;1.13;0.88;;;;;;;21.92;77.80;99403.19;5054065;28;20502;-63
2023/06/27 07:57:38;;;;;;;1.95;1.58;;;;;;;22.00;77.56;99400.19;5053998;28;20411;-63
2023/06/27 08:00:10;;;;;;;0.70;0.70;;;;;;;22.01;76.86;99394.06;5043836;28;20045;-62
2023/06/27 08:02:42;;;;;;;0.82;0.82;;;;;;;22.02;76.44;99393.16;5033493;28;20128;-63
2023/06/27 08:05:12;;;;;;;0.77;0.77;;;;;;;21.99;75.83;99393.31;5033802;28;20045;-63
2023/06/27 08:07:41;;;;;;;1.88;1.08;;;;;;;22.02;75.56;99398.34;5034254;28;20046;-63
2023/06/27 08:10:11;;;;;;;1.10;1.00;;;;;;;22.08;75.13;99400.63;5053841;28;20411;-63
2023/06/27 08:12:41;;;;;;;0.50;0.50;;;;;;;22.06;75.17;99405.06;5054005;28;20128;-62
2023/06/27 08:15:10;;;;;;;0.97;0.80;;;;;;;22.16;75.49;99401.06;5053688;28;20368;-63
2023/06/27 08:17:39;;;;;;;;;;;;;;;22.12;75.03;99394.38;5037571;28;20038;-63
2023/06/27 08:20:08;;;;;;;1.15;0.80;;;;;;;22.22;74.82;99403.34;5042307;28;19921;-63
2023/06/27 08:22:39;;;;;;;0.90;0.73;;;;;;;22.27;74.77;99409.13;5054079;28;20495;-63
2023/06/27 08:25:08;;;;;;;0.85;0.85;;;;;;;22.35;75.00;99401.78;5053064;28;20061;-62
2023/06/27 08:27:37;;;;;;;1.95;1.25;;;;;;;22.40;75.09;99394.59;5051703;28;20049;-63
2023/06/27 08:30:08;;;;;;;0.93;0.90;;;;;;;22.44;75.15;99395.25;5053347;28;20069;-62
2023/06/27 08:32:37;;;;;;;0.82;0.82;;;;;;;22.45;75.18;99394.34;5053368;28;20491;-63
2023/06/27 08:35:06;;;;;;;0.60;0.60;;;;;;;22.44;74.66;99396.09;5036880;28;20050;-63
2023/06/27 08:37:35;;;;;;;1.30;0.98;;;;;;;22.39;73.74;99398.09;5032752;28;20727;-62
2023/06/27 08:40:07;;;;;;;1.00;0.83;;;;;;;22.38;73.69;99398.19;5042395;28;20103;-63
2023/06/27 08:42:35;;;;;;;0.80;0.80;;;;;;;22.44;73.82;99401.28;5047493;28;20037;-63
2023/06/27 08:45:05;;;;;;;0.73;0.67;;;;;;;22.46;73.95;99407.25;5049845;28;20384;-63
2023/06/27 08:47:35;;;;;;;;;;;;;;;22.46;74.06;99402.03;5056566;28;20052;-63
2023/06/27 08:50:07;;;;;;;1.15;1.05;;;;;;;22.44;73.67;99411.69;5057697;28;19932;-63
2023/06/27 08:52:43;;;;;;;2.15;1.08;;;;;;;22.49;73.73;99399.28;5057269;28;20059;-62
2023/06/27 08:55:19;;;;;;;0.60;0.60;;;;;;;22.51;73.50;99412.19;5038734;28;20103;-63
2023/06/27 08:57:48;;;;;;;1.10;1.00;;;;;;;22.55;73.56;99419.78;5037486;28;20064;-63
2023/06/27 09:00:22;;;;;;;0.70;0.70;;;;;;;22.61;73.42;99419.47;5037388;28;20407;-63
2023/06/27 09:02:51;;;;;;;0.90;0.90;;;;;;;22.67;72.96;99416.53;5037700;28;20409;-63
2023/06/27 09:05:21;;;;;;;1.50;1.08;;;;;;;22.72;72.85;99429.31;5036032;28;20113;-63
2023/06/27 09:07:50;;;;;;;1.10;1.00;;;;;;;22.82;72.44;99421.84;5036996;28;20046;-62
2023/06/27 09:10:21;;;;;;;1.35;1.10;;;;;;;22.95;72.38;99422.84;5048128;28;20041;-63
2023/06/27 09:12:53;;;;;;;2.78;1.15;;;;;;;23.07;72.18;99422.16;5039119;28;20041;-62
2023/06/27 09:15:22;;;;;;;1.67;1.13;;;;;;;23.13;72.12;99421.81;5036395;28;20137;-62
2023/06/27 09:17:51;;;;;;;1.13;0.93;;;;;;;23.14;71.71;99420.88;5036036;28;20033;-64
2023/06/27 09:20:20;;;;;;;1.52;0.63;;;;;;;23.16;71.17;99419.03;5035976;28;20455;-63
2023/06/27 09:22:49;;;;;;;0.93;0.88;;;;;;;23.13;70.65;99411.41;5035291;28;20091;-66
2023/06/27 09:25:20;;;;;;;0.80;0.80;;;;;;;23.18;70.09;99419.78;5016877;28;20072;-62
2023/06/27 09:27:49;;;;;;;1.52;1.25;;;;;;;23.26;70.05;99433.22;5016722;28;20042;-64
2023/06/27 09:30:23;;;;;;;0.88;0.88;;;;;;;23.35;69.83;99427.53;5019235;28;20041;-62
2023/06/27 09:32:53;;;;;;;1.67;1.58;;;;;;;23.46;69.34;99430.38;5036501;28;20052;-64
2023/06/27 09:35:23;;;;;;;1.88;1.73;;;;;;;23.53;69.08;99447.31;5036667;28;20121;-64
2023/06/27 09:38:06;;;;;;;2.20;1.10;;;;;;;23.52;68.85;99450.84;5036579;28;20048;-64
2023/06/27 09:40:40;;;;;;;1.75;1.33;;;;;;;23.49;68.81;99455.41;5037584;28;20029;-65
2023/06/27 09:43:11;;;;;;;0.90;0.82;;;;;;;23.53;68.76;99447.31;5056338;28;20037;-64
2023/06/27 09:45:40;;;;;;;1.35;1.25;;;;;;;23.43;68.32;99440.97;5056635;28;20041;-62
2023/06/27 09:48:11;;;;;;;1.38;0.98;;;;;;;23.40;68.60;99432.47;5056537;28;20151;-64
2023/06/27 09:50:43;;;;;;;0.70;0.70;;;;;;;23.31;68.36;99432.03;5050046;28;20510;-62
2023/06/27 09:53:12;;;;;;;2.28;1.23;;;;;;;23.26;68.26;99433.22;5035509;28;20053;-64
2023/06/27 09:55:47;;;;;;;1.17;0.63;;;;;;;23.20;68.16;99437.00;5034784;28;20049;-62
2023/06/27 09:58:27;;;;;;;1.52;1.25;;;;;;;23.12;68.22;99446.19;5036108;28;20057;-64
2023/06/27 10:01:03;;;;;;;1.88;1.67;;;;;;;23.08;68.16;99440.28;5052543;28;20060;-62
2023/06/27 10:03:33;;;;;;;1.13;1.00;;;;;;;23.02;68.15;99439.78;5055964;28;20103;-64
2023/06/27 10:06:02;;;;;;;;;;;;;;;22.92;68.02;99434.25;5054064;28;20042;-62
2023/06/27 10:08:40;;;;;;;1.52;1.42;;;;;;;22.93;68.23;99435.09;5054752;28;19921;-62
2023/06/27 10:11:10;;;;;;;1.08;1.02;;;;;;;22.93;68.93;99446.34;5056095;28;20395;-62
2023/06/27 10:13:41;;;;;;;1.65;1.55;;;;;;;23.02;69.09;99451.06;5055951;28;20115;-62
2023/06/27 10:16:13;;;;;;;1.42;1.15;;;;;;;23.15;69.57;99456.44;5035840;28;20459;-62
2023/06/27 10:18:43;;;;;;;0.85;0.77;;;;;;;23.21;69.38;99456.06;5035678;28;20050;-63
2023/06/27 10:21:13;;;;;;;1.00;0.75;;;;;;;23.20;68.84;99451.81;5035647;28;20053;-62
2023/06/27 10:23:45;;;;;;;1.10;0.98;;;;;;;23.12;67.56;99440.97;5034865;28;20052;-63
2023/06/27 10:26:18;;;;;;;0.73;0.70;;;;;;;23.11;66.73;99434.06;5048847;28;20118;-63
2023/06/27 10:28:51;;;;;;;0.73;0.73;;;;;;;23.15;66.30;99440.81;5055539;28;20049;-62
2023/06/27 10:31:42;;;;;;;0.43;0.43;;;;;;;23.18;65.64;99435.41;5055741;28;20052;-63
2023/06/27 10:34:17;;;;;;;0.68;0.63;;;;;;;23.25;65.48;99447.19;5038451;28;20096;-62
2023/06/27 10:36:58;;;;;;;1.92;1.15;;;;;;;23.33;65.09;99455.38;5035885;28;20057;-63
2023/06/27 10:39:31;;;;;;;0.65;0.65;;;;;;;23.37;64.65;99461.31;5035415;28;20041;-64
2023/06/27 10:42:04;;;;;;;1.52;0.90;;;;;;;23.44;64.74;99453.06;5035313;28;20099;-63
2023/06/27 10:44:36;;;;;;;1.30;1.10;;;;;;;23.38;63.83;99458.63;5034322;28;20041;-62
2023/06/27 10:47:29;;;;;;;5.90;1.63;;;;;;;23.40;63.67;99461.97;5035607;28;20136;-63
2023/06/27 10:50:09;;;;;;;1.10;1.00;;;;;;;23.40;63.85;99461.97;5043155;28;20682;-63
2023/06/27 10:52:40;;;;;;;0.90;0.85;;;;;;;23.39;63.73;99464.66;5055042;28;20045;-64
2023/06/27 10:55:20;;;;;;;1.42;1.33;;;;;;;23.44;64.62;99457.44;5055050;28;20099;-63
2023/06/27 10:58:02;;;;;;;0.50;0.50;;;;;;;23.43;64.95;99467.00;5054942;28;20574;-63
2023/06/27 11:00:32;;;;;;;0.73;0.73;;;;;;;23.30;64.98;99471.19;5040852;28;20054;-63
2023/06/27 11:03:06;;;;;;;0.55;0.55;;;;;;;23.27;64.95;99466.16;5035260;28;20045;-62
2023/06/27 11:05:46;;;;;;;0.57;0.57;;;;;;;23.27;65.13;99463.56;5033797;28;20120;-63
2023/06/27 11:08:17;;;;;;;1.98;1.10;;;;;;;23.24;65.24;99461.13;5035604;28;20100;-63
2023/06/27 11:11:02;;;;;;;1.15;1.02;;;;;;;23.25;65.77;99470.63;5037655;28;20044;-63
2023/06/27 11:13:34;;;;;;;1.85;1.20;;;;;;;23.20;65.90;99464.84;5054674;28;20094;-63
2023/06/27 11:16:04;;;;;;;1.30;1.02;;;;;;;23.21;66.19;99456.91;5041387;28;20503;-63
2023/06/27 11:18:34;;;;;;;1.17;0.95;;;;;;;23.17;66.38;99457.19;5041037;28;20036;-64
2023/06/27 11:21:04;;;;;;;2.50;1.13;;;;;;;23.12;66.01;99446.19;5053332;28;20162;-62
2023/06/27 11:23:34;;;;;;;1.10;1.00;;;;;;;23.14;66.21;99446.94;5054733;28;20045;-63
2023/06/27 11:26:03;;;;;;;1.55;1.15;;;;;;;23.14;66.47;99439.13;5054077;28;20144;-64
2023/06/27 11:28:35;;;;;;;1.27;1.17;;;;;;;23.13;66.21;99442.66;5044323;28;20045;-62
2023/06/27 11:31:04;;;;;;;0.50;0.50;;;;;;;23.23;66.21;99438.59;5028937;28;20488;-62
2023/06/27 11:33:33;;;;;;;1.30;1.20;;;;;;;23.23;65.76;99438.59;5033429;28;20060;-63
2023/06/27 11:36:03;;;;;;;0.73;0.63;;;;;;;23.34;65.06;99441.44;5054176;28;20088;-63
2023/06/27 11:38:32;;;;;;;1.45;1.25;;;;;;;23.38;64.36;99429.97;5053951;28;20041;-63
2023/06/27 11:41:01;;;;;;;1.17;1.08;;;;;;;23.45;63.42;99426.06;5034420;28;20072;-62
2023/06/27 11:43:30;;;;;;;2.97;1.02;;;;;;;23.51;63.20;99428.34;5033913;28;20041;-62
2023/06/27 11:46:00;;;;;;;1.48;1.23;;;;;;;23.68;62.87;99429.97;5034125;28;20048;-63
2023/06/27 11:48:29;;;;;;;0.55;0.52;;;;;;;23.82;62.15;99428.25;5040802;28;20045;-62